sensor_id;sensor_type;location;lat;lon;timestamp;P1;durP1;ratioP1;P2;durP2;ratioP2
23826;SDS011;12094;50.822;4.376;2022-10-31T00:01:30;22.38;;;10.30;;
23826;SDS011;12094;50.822;4.376;2022-10-31T00:03:59;19.23;;;9.88;;
23826;SDS011;12094;50.822;4.376;2022-10-31T00:06:28;21.60;;;9.60;;
23826;SDS011;12094;50.822;4.376;2022-10-31T00:08:56;19.60;;;9.10;;
23826;SDS011;12094;50.822;4.376;2022-10-31T00:11:29;18.95;;;9.80;;
23826;SDS011;12094;50.822;4.376;2022-10-31T00:13:59;17.85;;;9.05;;
23826;SDS011;12094;50.822;4.376;2022-10-31T00:16:31;21.83;;;10.32;;
23826;SDS011;12094;50.822;4.376;2022-10-31T00:19:02;40.35;;;27.38;;
23826;SDS011;12094;50.822;4.376;2022-10-31T00:21:34;23.17;;;9.85;;
23826;SDS011;12094;50.822;4.376;2022-10-31T00:24:02;19.55;;;9.68;;
23826;SDS011;12094;50.822;4.376;2022-10-31T00:26:30;21.83;;;10.07;;
23826;SDS011;12094;50.822;4.376;2022-10-31T00:28:59;19.42;;;9.80;;
23826;SDS011;12094;50.822;4.376;2022-10-31T00:31:29;23.45;;;9.82;;
23826;SDS011;12094;50.822;4.376;2022-10-31T00:33:57;22.50;;;9.15;;
23826;SDS011;12094;50.822;4.376;2022-10-31T00:36:26;18.25;;;10.02;;
23826;SDS011;12094;50.822;4.376;2022-10-31T00:38:54;18.85;;;9.88;;
23826;SDS011;12094;50.822;4.376;2022-10-31T00:43:54;16.90;;;9.20;;
23826;SDS011;12094;50.822;4.376;2022-10-31T00:46:22;17.88;;;9.13;;
23826;SDS011;12094;50.822;4.376;2022-10-31T00:48:50;15.38;;;9.02;;
23826;SDS011;12094;50.822;4.376;2022-10-31T00:51:19;21.63;;;9.23;;
23826;SDS011;12094;50.822;4.376;2022-10-31T00:53:47;15.65;;;8.70;;
23826;SDS011;12094;50.822;4.376;2022-10-31T00:56:15;15.25;;;8.45;;
23826;SDS011;12094;50.822;4.376;2022-10-31T00:58:44;15.20;;;8.40;;
23826;SDS011;12094;50.822;4.376;2022-10-31T01:01:12;14.63;;;8.68;;
23826;SDS011;12094;50.822;4.376;2022-10-31T01:03:40;18.88;;;9.63;;
23826;SDS011;12094;50.822;4.376;2022-10-31T01:06:11;21.05;;;8.38;;
23826;SDS011;12094;50.822;4.376;2022-10-31T01:08:40;19.75;;;9.30;;
23826;SDS011;12094;50.822;4.376;2022-10-31T01:11:18;16.75;;;9.00;;
23826;SDS011;12094;50.822;4.376;2022-10-31T01:13:46;18.05;;;8.52;;
23826;SDS011;12094;50.822;4.376;2022-10-31T01:16:18;18.58;;;8.35;;
23826;SDS011;12094;50.822;4.376;2022-10-31T01:18:52;15.52;;;8.65;;
23826;SDS011;12094;50.822;4.376;2022-10-31T01:21:20;16.42;;;8.52;;
23826;SDS011;12094;50.822;4.376;2022-10-31T01:23:53;17.17;;;8.20;;
23826;SDS011;12094;50.822;4.376;2022-10-31T01:26:23;18.58;;;8.57;;
23826;SDS011;12094;50.822;4.376;2022-10-31T01:28:54;14.18;;;8.18;;
23826;SDS011;12094;50.822;4.376;2022-10-31T01:31:25;21.80;;;8.65;;
23826;SDS011;12094;50.822;4.376;2022-10-31T01:33:55;13.73;;;7.83;;
23826;SDS011;12094;50.822;4.376;2022-10-31T01:38:59;17.63;;;8.52;;
23826;SDS011;12094;50.822;4.376;2022-10-31T01:41:28;23.60;;;8.82;;
23826;SDS011;12094;50.822;4.376;2022-10-31T01:44:02;18.25;;;7.95;;
23826;SDS011;12094;50.822;4.376;2022-10-31T01:49:46;16.00;;;8.52;;
23826;SDS011;12094;50.822;4.376;2022-10-31T01:52:21;22.48;;;8.68;;
23826;SDS011;12094;50.822;4.376;2022-10-31T01:55:00;22.17;;;8.98;;
23826;SDS011;12094;50.822;4.376;2022-10-31T01:57:30;19.83;;;9.23;;
23826;SDS011;12094;50.822;4.376;2022-10-31T02:00:01;17.50;;;8.27;;
23826;SDS011;12094;50.822;4.376;2022-10-31T02:05:09;18.50;;;8.85;;
23826;SDS011;12094;50.822;4.376;2022-10-31T02:10:44;20.13;;;9.32;;
23826;SDS011;12094;50.822;4.376;2022-10-31T02:13:12;19.80;;;9.25;;
23826;SDS011;12094;50.822;4.376;2022-10-31T02:15:53;20.35;;;8.75;;
23826;SDS011;12094;50.822;4.376;2022-10-31T02:18:24;20.38;;;8.80;;
23826;SDS011;12094;50.822;4.376;2022-10-31T02:23:45;18.45;;;8.77;;
23826;SDS011;12094;50.822;4.376;2022-10-31T02:32:18;18.48;;;9.35;;
23826;SDS011;12094;50.822;4.376;2022-10-31T02:35:13;21.65;;;9.63;;
23826;SDS011;12094;50.822;4.376;2022-10-31T02:40:58;16.52;;;9.80;;
23826;SDS011;12094;50.822;4.376;2022-10-31T02:49:38;26.40;;;9.48;;
23826;SDS011;12094;50.822;4.376;2022-10-31T02:52:23;18.73;;;9.50;;
23826;SDS011;12094;50.822;4.376;2022-10-31T02:54:52;18.55;;;9.70;;
23826;SDS011;12094;50.822;4.376;2022-10-31T02:57:23;19.70;;;10.07;;
23826;SDS011;12094;50.822;4.376;2022-10-31T02:59:55;21.85;;;9.85;;
23826;SDS011;12094;50.822;4.376;2022-10-31T03:02:34;17.55;;;9.57;;
23826;SDS011;12094;50.822;4.376;2022-10-31T03:05:19;20.65;;;9.73;;
23826;SDS011;12094;50.822;4.376;2022-10-31T03:07:55;18.20;;;9.35;;
23826;SDS011;12094;50.822;4.376;2022-10-31T03:10:40;18.05;;;8.88;;
23826;SDS011;12094;50.822;4.376;2022-10-31T03:15:49;15.55;;;9.32;;
23826;SDS011;12094;50.822;4.376;2022-10-31T03:21:01;25.88;;;10.38;;
23826;SDS011;12094;50.822;4.376;2022-10-31T03:23:31;20.13;;;9.45;;
23826;SDS011;12094;50.822;4.376;2022-10-31T03:26:03;18.15;;;9.65;;
23826;SDS011;12094;50.822;4.376;2022-10-31T03:31:22;16.42;;;9.07;;
23826;SDS011;12094;50.822;4.376;2022-10-31T03:33:53;21.80;;;9.45;;
23826;SDS011;12094;50.822;4.376;2022-10-31T03:36:31;20.90;;;8.98;;
23826;SDS011;12094;50.822;4.376;2022-10-31T03:39:07;19.48;;;10.10;;
23826;SDS011;12094;50.822;4.376;2022-10-31T03:41:43;15.50;;;9.30;;
23826;SDS011;12094;50.822;4.376;2022-10-31T03:44:17;20.38;;;9.82;;
23826;SDS011;12094;50.822;4.376;2022-10-31T03:46:55;23.65;;;10.10;;
23826;SDS011;12094;50.822;4.376;2022-10-31T03:49:24;21.27;;;10.45;;
23826;SDS011;12094;50.822;4.376;2022-10-31T03:52:01;17.42;;;9.68;;
23826;SDS011;12094;50.822;4.376;2022-10-31T03:54:43;20.88;;;10.50;;
23826;SDS011;12094;50.822;4.376;2022-10-31T03:59:55;20.45;;;10.15;;
23826;SDS011;12094;50.822;4.376;2022-10-31T04:02:33;23.85;;;10.77;;
23826;SDS011;12094;50.822;4.376;2022-10-31T04:05:06;21.05;;;10.05;;
23826;SDS011;12094;50.822;4.376;2022-10-31T04:07:36;15.98;;;9.48;;
23826;SDS011;12094;50.822;4.376;2022-10-31T04:10:11;19.42;;;10.15;;
23826;SDS011;12094;50.822;4.376;2022-10-31T04:12:42;21.27;;;9.90;;
23826;SDS011;12094;50.822;4.376;2022-10-31T04:15:21;17.40;;;10.23;;
23826;SDS011;12094;50.822;4.376;2022-10-31T04:17:51;18.73;;;9.75;;
23826;SDS011;12094;50.822;4.376;2022-10-31T04:20:29;19.48;;;10.98;;
23826;SDS011;12094;50.822;4.376;2022-10-31T04:23:00;22.38;;;11.02;;
23826;SDS011;12094;50.822;4.376;2022-10-31T04:25:31;18.30;;;9.77;;
23826;SDS011;12094;50.822;4.376;2022-10-31T04:33:00;22.92;;;10.13;;
23826;SDS011;12094;50.822;4.376;2022-10-31T04:38:00;17.95;;;10.90;;
23826;SDS011;12094;50.822;4.376;2022-10-31T04:40:28;21.75;;;10.80;;
23826;SDS011;12094;50.822;4.376;2022-10-31T04:43:15;20.05;;;10.85;;
23826;SDS011;12094;50.822;4.376;2022-10-31T04:45:46;21.23;;;11.00;;
23826;SDS011;12094;50.822;4.376;2022-10-31T04:48:13;22.65;;;12.15;;
23826;SDS011;12094;50.822;4.376;2022-10-31T04:50:44;21.48;;;11.50;;
23826;SDS011;12094;50.822;4.376;2022-10-31T04:53:13;21.58;;;11.27;;
23826;SDS011;12094;50.822;4.376;2022-10-31T04:56:19;19.45;;;11.88;;
23826;SDS011;12094;50.822;4.376;2022-10-31T04:58:50;22.38;;;12.35;;
23826;SDS011;12094;50.822;4.376;2022-10-31T05:01:18;26.13;;;13.70;;
23826;SDS011;12094;50.822;4.376;2022-10-31T05:03:49;21.83;;;12.20;;
23826;SDS011;12094;50.822;4.376;2022-10-31T05:06:16;23.25;;;13.27;;
23826;SDS011;12094;50.822;4.376;2022-10-31T05:08:43;25.23;;;13.52;;
23826;SDS011;12094;50.822;4.376;2022-10-31T05:11:13;24.42;;;14.27;;
23826;SDS011;12094;50.822;4.376;2022-10-31T05:13:45;25.00;;;13.50;;
23826;SDS011;12094;50.822;4.376;2022-10-31T05:16:55;24.30;;;13.45;;
23826;SDS011;12094;50.822;4.376;2022-10-31T05:19:53;25.90;;;13.98;;
23826;SDS011;12094;50.822;4.376;2022-10-31T05:22:51;23.48;;;13.65;;
23826;SDS011;12094;50.822;4.376;2022-10-31T05:25:23;30.42;;;14.60;;
23826;SDS011;12094;50.822;4.376;2022-10-31T05:27:54;29.20;;;14.50;;
23826;SDS011;12094;50.822;4.376;2022-10-31T05:30:23;28.58;;;14.52;;
23826;SDS011;12094;50.822;4.376;2022-10-31T05:32:53;20.48;;;14.45;;
23826;SDS011;12094;50.822;4.376;2022-10-31T05:38:30;24.55;;;14.25;;
23826;SDS011;12094;50.822;4.376;2022-10-31T05:41:07;28.02;;;15.32;;
23826;SDS011;12094;50.822;4.376;2022-10-31T05:43:40;26.83;;;16.33;;
23826;SDS011;12094;50.822;4.376;2022-10-31T05:46:08;30.52;;;15.20;;
23826;SDS011;12094;50.822;4.376;2022-10-31T05:48:58;25.63;;;14.27;;
23826;SDS011;12094;50.822;4.376;2022-10-31T05:54:19;30.50;;;15.18;;
23826;SDS011;12094;50.822;4.376;2022-10-31T05:56:47;27.52;;;14.95;;
23826;SDS011;12094;50.822;4.376;2022-10-31T05:59:15;29.38;;;15.63;;
23826;SDS011;12094;50.822;4.376;2022-10-31T06:01:44;30.55;;;15.23;;
23826;SDS011;12094;50.822;4.376;2022-10-31T06:04:46;32.03;;;15.25;;
23826;SDS011;12094;50.822;4.376;2022-10-31T06:07:15;30.70;;;14.57;;
23826;SDS011;12094;50.822;4.376;2022-10-31T06:09:42;31.00;;;15.60;;
23826;SDS011;12094;50.822;4.376;2022-10-31T06:12:11;30.95;;;14.23;;
23826;SDS011;12094;50.822;4.376;2022-10-31T06:14:59;29.25;;;14.75;;
23826;SDS011;12094;50.822;4.376;2022-10-31T06:17:27;20.88;;;13.77;;
23826;SDS011;12094;50.822;4.376;2022-10-31T06:20:14;27.10;;;14.80;;
23826;SDS011;12094;50.822;4.376;2022-10-31T06:22:56;27.58;;;14.07;;
23826;SDS011;12094;50.822;4.376;2022-10-31T06:25:24;30.00;;;15.00;;
23826;SDS011;12094;50.822;4.376;2022-10-31T06:27:52;34.25;;;14.50;;
23826;SDS011;12094;50.822;4.376;2022-10-31T06:30:23;32.55;;;14.57;;
23826;SDS011;12094;50.822;4.376;2022-10-31T06:32:53;27.02;;;13.73;;
23826;SDS011;12094;50.822;4.376;2022-10-31T06:35:22;28.27;;;14.52;;
23826;SDS011;12094;50.822;4.376;2022-10-31T06:37:53;28.73;;;15.85;;
23826;SDS011;12094;50.822;4.376;2022-10-31T06:43:23;29.58;;;14.93;;
23826;SDS011;12094;50.822;4.376;2022-10-31T06:46:05;31.27;;;14.45;;
23826;SDS011;12094;50.822;4.376;2022-10-31T06:48:39;29.20;;;14.52;;
23826;SDS011;12094;50.822;4.376;2022-10-31T06:51:20;26.70;;;15.15;;
23826;SDS011;12094;50.822;4.376;2022-10-31T06:53:52;26.05;;;14.65;;
23826;SDS011;12094;50.822;4.376;2022-10-31T06:56:23;27.38;;;15.25;;
23826;SDS011;12094;50.822;4.376;2022-10-31T06:58:56;33.20;;;15.02;;
23826;SDS011;12094;50.822;4.376;2022-10-31T07:01:53;26.27;;;14.02;;
23826;SDS011;12094;50.822;4.376;2022-10-31T07:04:22;27.05;;;14.63;;
23826;SDS011;12094;50.822;4.376;2022-10-31T07:06:51;21.90;;;14.02;;
23826;SDS011;12094;50.822;4.376;2022-10-31T07:09:21;27.55;;;14.30;;
23826;SDS011;12094;50.822;4.376;2022-10-31T07:11:51;25.00;;;13.50;;
23826;SDS011;12094;50.822;4.376;2022-10-31T07:14:20;30.05;;;14.70;;
23826;SDS011;12094;50.822;4.376;2022-10-31T07:16:48;30.17;;;15.45;;
23826;SDS011;12094;50.822;4.376;2022-10-31T07:19:22;27.60;;;15.07;;
23826;SDS011;12094;50.822;4.376;2022-10-31T07:21:49;31.27;;;16.00;;
23826;SDS011;12094;50.822;4.376;2022-10-31T07:24:17;27.85;;;14.88;;
23826;SDS011;12094;50.822;4.376;2022-10-31T07:27:07;30.17;;;15.25;;
23826;SDS011;12094;50.822;4.376;2022-10-31T07:29:34;23.60;;;15.15;;
23826;SDS011;12094;50.822;4.376;2022-10-31T07:32:10;22.13;;;14.15;;
23826;SDS011;12094;50.822;4.376;2022-10-31T07:35:02;26.52;;;15.13;;
23826;SDS011;12094;50.822;4.376;2022-10-31T07:37:43;22.88;;;14.30;;
23826;SDS011;12094;50.822;4.376;2022-10-31T07:40:16;27.90;;;15.35;;
23826;SDS011;12094;50.822;4.376;2022-10-31T07:42:46;25.13;;;14.95;;
23826;SDS011;12094;50.822;4.376;2022-10-31T07:48:51;27.67;;;14.27;;
23826;SDS011;12094;50.822;4.376;2022-10-31T07:51:37;33.97;;;14.40;;
23826;SDS011;12094;50.822;4.376;2022-10-31T07:54:30;27.55;;;14.52;;
23826;SDS011;12094;50.822;4.376;2022-10-31T07:56:57;28.67;;;14.50;;
23826;SDS011;12094;50.822;4.376;2022-10-31T07:59:25;32.42;;;15.45;;
23826;SDS011;12094;50.822;4.376;2022-10-31T08:01:53;29.00;;;15.20;;
23826;SDS011;12094;50.822;4.376;2022-10-31T08:04:29;28.77;;;15.52;;
23826;SDS011;12094;50.822;4.376;2022-10-31T08:07:16;28.00;;;13.90;;
23826;SDS011;12094;50.822;4.376;2022-10-31T08:09:50;26.30;;;14.90;;
23826;SDS011;12094;50.822;4.376;2022-10-31T08:12:22;21.13;;;12.52;;
23826;SDS011;12094;50.822;4.376;2022-10-31T08:14:51;24.63;;;14.00;;
23826;SDS011;12094;50.822;4.376;2022-10-31T08:17:21;23.80;;;13.03;;
23826;SDS011;12094;50.822;4.376;2022-10-31T08:19:57;25.15;;;12.50;;
23826;SDS011;12094;50.822;4.376;2022-10-31T08:22:40;21.88;;;11.90;;
23826;SDS011;12094;50.822;4.376;2022-10-31T08:25:10;19.67;;;11.38;;
23826;SDS011;12094;50.822;4.376;2022-10-31T08:34:40;20.55;;;11.68;;
23826;SDS011;12094;50.822;4.376;2022-10-31T08:37:36;25.30;;;11.43;;
23826;SDS011;12094;50.822;4.376;2022-10-31T08:40:05;18.55;;;11.20;;
23826;SDS011;12094;50.822;4.376;2022-10-31T08:42:35;22.38;;;12.75;;
23826;SDS011;12094;50.822;4.376;2022-10-31T08:45:03;21.27;;;11.38;;
23826;SDS011;12094;50.822;4.376;2022-10-31T08:47:34;21.85;;;11.32;;
23826;SDS011;12094;50.822;4.376;2022-10-31T08:50:02;21.52;;;12.85;;
23826;SDS011;12094;50.822;4.376;2022-10-31T08:52:30;24.35;;;11.90;;
23826;SDS011;12094;50.822;4.376;2022-10-31T08:55:26;24.23;;;12.23;;
23826;SDS011;12094;50.822;4.376;2022-10-31T08:58:03;23.27;;;11.43;;
23826;SDS011;12094;50.822;4.376;2022-10-31T09:00:45;21.10;;;10.30;;
23826;SDS011;12094;50.822;4.376;2022-10-31T09:03:17;17.02;;;10.52;;
23826;SDS011;12094;50.822;4.376;2022-10-31T09:05:57;19.10;;;12.00;;
23826;SDS011;12094;50.822;4.376;2022-10-31T09:08:28;18.75;;;10.65;;
23826;SDS011;12094;50.822;4.376;2022-10-31T09:10:57;20.67;;;10.40;;
23826;SDS011;12094;50.822;4.376;2022-10-31T09:13:45;18.65;;;11.07;;
23826;SDS011;12094;50.822;4.376;2022-10-31T09:16:35;17.75;;;11.25;;
23826;SDS011;12094;50.822;4.376;2022-10-31T09:19:05;19.60;;;11.00;;
23826;SDS011;12094;50.822;4.376;2022-10-31T09:21:38;21.80;;;11.23;;
23826;SDS011;12094;50.822;4.376;2022-10-31T09:24:06;18.73;;;11.55;;
23826;SDS011;12094;50.822;4.376;2022-10-31T09:26:33;21.13;;;10.60;;
23826;SDS011;12094;50.822;4.376;2022-10-31T09:29:05;21.23;;;11.27;;
23826;SDS011;12094;50.822;4.376;2022-10-31T09:31:36;17.65;;;11.18;;
23826;SDS011;12094;50.822;4.376;2022-10-31T09:34:28;21.45;;;9.85;;
23826;SDS011;12094;50.822;4.376;2022-10-31T09:37:06;14.68;;;9.05;;
23826;SDS011;12094;50.822;4.376;2022-10-31T09:39:34;18.45;;;9.10;;
23826;SDS011;12094;50.822;4.376;2022-10-31T09:42:47;16.77;;;9.93;;
23826;SDS011;12094;50.822;4.376;2022-10-31T09:45:38;19.17;;;9.87;;
23826;SDS011;12094;50.822;4.376;2022-10-31T09:51:50;19.42;;;10.18;;
23826;SDS011;12094;50.822;4.376;2022-10-31T09:54:34;22.40;;;10.00;;
23826;SDS011;12094;50.822;4.376;2022-10-31T09:57:12;21.58;;;10.05;;
23826;SDS011;12094;50.822;4.376;2022-10-31T09:59:45;16.33;;;9.98;;
23826;SDS011;12094;50.822;4.376;2022-10-31T10:02:19;20.85;;;9.93;;
23826;SDS011;12094;50.822;4.376;2022-10-31T10:05:10;24.77;;;11.32;;
23826;SDS011;12094;50.822;4.376;2022-10-31T10:11:08;21.77;;;10.15;;
23826;SDS011;12094;50.822;4.376;2022-10-31T10:20:05;20.92;;;10.40;;
23826;SDS011;12094;50.822;4.376;2022-10-31T10:23:02;20.90;;;10.40;;
23826;SDS011;12094;50.822;4.376;2022-10-31T10:26:06;19.17;;;10.40;;
23826;SDS011;12094;50.822;4.376;2022-10-31T10:28:43;22.98;;;9.82;;
23826;SDS011;12094;50.822;4.376;2022-10-31T10:31:15;20.08;;;10.38;;
23826;SDS011;12094;50.822;4.376;2022-10-31T10:36:36;26.50;;;10.30;;
23826;SDS011;12094;50.822;4.376;2022-10-31T10:39:11;22.40;;;10.48;;
23826;SDS011;12094;50.822;4.376;2022-10-31T10:41:47;25.10;;;10.98;;
23826;SDS011;12094;50.822;4.376;2022-10-31T10:44:37;23.90;;;11.13;;
23826;SDS011;12094;50.822;4.376;2022-10-31T10:47:26;24.33;;;11.10;;
23826;SDS011;12094;50.822;4.376;2022-10-31T10:50:41;22.50;;;11.90;;
23826;SDS011;12094;50.822;4.376;2022-10-31T10:53:10;18.83;;;11.18;;
23826;SDS011;12094;50.822;4.376;2022-10-31T10:55:59;20.25;;;11.07;;
23826;SDS011;12094;50.822;4.376;2022-10-31T10:58:56;19.40;;;11.68;;
23826;SDS011;12094;50.822;4.376;2022-10-31T11:01:24;22.17;;;10.88;;
23826;SDS011;12094;50.822;4.376;2022-10-31T11:03:51;23.90;;;11.77;;
23826;SDS011;12094;50.822;4.376;2022-10-31T11:06:19;21.55;;;10.68;;
23826;SDS011;12094;50.822;4.376;2022-10-31T11:08:52;22.25;;;11.15;;
23826;SDS011;12094;50.822;4.376;2022-10-31T11:11:26;20.73;;;11.45;;
23826;SDS011;12094;50.822;4.376;2022-10-31T11:16:50;20.63;;;10.70;;
23826;SDS011;12094;50.822;4.376;2022-10-31T11:19:22;23.30;;;10.70;;
23826;SDS011;12094;50.822;4.376;2022-10-31T11:22:05;20.45;;;10.80;;
23826;SDS011;12094;50.822;4.376;2022-10-31T11:24:40;21.65;;;10.20;;
23826;SDS011;12094;50.822;4.376;2022-10-31T11:30:45;19.95;;;10.82;;
23826;SDS011;12094;50.822;4.376;2022-10-31T11:33:35;27.23;;;13.98;;
23826;SDS011;12094;50.822;4.376;2022-10-31T11:39:18;21.50;;;9.98;;
23826;SDS011;12094;50.822;4.376;2022-10-31T11:41:50;20.65;;;10.20;;
23826;SDS011;12094;50.822;4.376;2022-10-31T11:44:27;17.90;;;10.25;;
23826;SDS011;12094;50.822;4.376;2022-10-31T11:46:57;19.17;;;10.82;;
23826;SDS011;12094;50.822;4.376;2022-10-31T11:49:45;23.00;;;10.38;;
23826;SDS011;12094;50.822;4.376;2022-10-31T11:52:20;22.08;;;10.73;;
23826;SDS011;12094;50.822;4.376;2022-10-31T11:57:51;25.38;;;10.77;;
23826;SDS011;12094;50.822;4.376;2022-10-31T12:00:32;20.70;;;10.18;;
23826;SDS011;12094;50.822;4.376;2022-10-31T12:05:41;28.23;;;11.80;;
23826;SDS011;12094;50.822;4.376;2022-10-31T12:11:06;25.60;;;9.95;;
23826;SDS011;12094;50.822;4.376;2022-10-31T12:21:37;19.35;;;8.25;;
23826;SDS011;12094;50.822;4.376;2022-10-31T12:27:35;21.92;;;8.45;;
23826;SDS011;12094;50.822;4.376;2022-10-31T12:30:23;21.77;;;7.75;;
23826;SDS011;12094;50.822;4.376;2022-10-31T12:33:01;21.00;;;7.45;;
23826;SDS011;12094;50.822;4.376;2022-10-31T12:44:06;17.77;;;7.65;;
23826;SDS011;12094;50.822;4.376;2022-10-31T12:49:14;17.15;;;7.25;;
23826;SDS011;12094;50.822;4.376;2022-10-31T12:55:40;18.33;;;7.22;;
23826;SDS011;12094;50.822;4.376;2022-10-31T12:58:34;18.85;;;7.45;;
23826;SDS011;12094;50.822;4.376;2022-10-31T13:01:12;19.95;;;8.23;;
23826;SDS011;12094;50.822;4.376;2022-10-31T13:06:31;22.48;;;8.20;;
23826;SDS011;12094;50.822;4.376;2022-10-31T13:09:11;21.92;;;8.70;;
23826;SDS011;12094;50.822;4.376;2022-10-31T13:11:49;18.73;;;8.73;;
23826;SDS011;12094;50.822;4.376;2022-10-31T13:14:25;20.35;;;7.90;;
23826;SDS011;12094;50.822;4.376;2022-10-31T13:16:59;21.45;;;8.05;;
23826;SDS011;12094;50.822;4.376;2022-10-31T13:19:35;21.87;;;8.07;;
23826;SDS011;12094;50.822;4.376;2022-10-31T13:22:16;19.63;;;8.25;;
23826;SDS011;12094;50.822;4.376;2022-10-31T13:24:50;19.25;;;8.55;;
23826;SDS011;12094;50.822;4.376;2022-10-31T13:27:24;21.02;;;8.38;;
23826;SDS011;12094;50.822;4.376;2022-10-31T13:30:03;37.05;;;9.77;;
23826;SDS011;12094;50.822;4.376;2022-10-31T13:38:15;25.70;;;10.68;;
23826;SDS011;12094;50.822;4.376;2022-10-31T13:46:47;21.73;;;8.02;;
23826;SDS011;12094;50.822;4.376;2022-10-31T13:52:11;24.50;;;8.43;;
23826;SDS011;12094;50.822;4.376;2022-10-31T13:54:40;22.27;;;7.93;;
23826;SDS011;12094;50.822;4.376;2022-10-31T13:57:18;16.63;;;7.50;;
23826;SDS011;12094;50.822;4.376;2022-10-31T13:59:57;16.05;;;7.15;;
23826;SDS011;12094;50.822;4.376;2022-10-31T14:02:45;21.30;;;7.47;;
23826;SDS011;12094;50.822;4.376;2022-10-31T14:05:28;17.13;;;7.90;;
23826;SDS011;12094;50.822;4.376;2022-10-31T14:08:01;18.30;;;7.43;;
23826;SDS011;12094;50.822;4.376;2022-10-31T14:10:38;29.25;;;7.97;;
23826;SDS011;12094;50.822;4.376;2022-10-31T14:13:25;24.77;;;7.82;;
23826;SDS011;12094;50.822;4.376;2022-10-31T14:18:56;19.42;;;6.40;;
23826;SDS011;12094;50.822;4.376;2022-10-31T14:21:37;17.13;;;6.80;;
23826;SDS011;12094;50.822;4.376;2022-10-31T14:26:53;15.47;;;6.20;;
23826;SDS011;12094;50.822;4.376;2022-10-31T14:29:22;20.73;;;6.72;;
23826;SDS011;12094;50.822;4.376;2022-10-31T14:31:53;18.83;;;6.63;;
23826;SDS011;12094;50.822;4.376;2022-10-31T14:34:29;23.73;;;6.38;;
23826;SDS011;12094;50.822;4.376;2022-10-31T14:45:29;15.85;;;6.25;;
23826;SDS011;12094;50.822;4.376;2022-10-31T14:50:58;16.52;;;6.13;;
23826;SDS011;12094;50.822;4.376;2022-10-31T14:53:37;16.38;;;6.30;;
23826;SDS011;12094;50.822;4.376;2022-10-31T14:56:13;11.57;;;5.82;;
23826;SDS011;12094;50.822;4.376;2022-10-31T14:58:57;21.60;;;6.80;;
23826;SDS011;12094;50.822;4.376;2022-10-31T15:01:30;20.48;;;6.78;;
23826;SDS011;12094;50.822;4.376;2022-10-31T15:04:05;19.38;;;6.57;;
23826;SDS011;12094;50.822;4.376;2022-10-31T15:06:51;19.88;;;6.80;;
23826;SDS011;12094;50.822;4.376;2022-10-31T15:09:36;20.98;;;6.35;;
23826;SDS011;12094;50.822;4.376;2022-10-31T15:15:12;34.28;;;8.23;;
23826;SDS011;12094;50.822;4.376;2022-10-31T15:17:43;15.73;;;7.38;;
23826;SDS011;12094;50.822;4.376;2022-10-31T15:20:12;19.40;;;7.97;;
23826;SDS011;12094;50.822;4.376;2022-10-31T15:22:55;22.38;;;7.53;;
23826;SDS011;12094;50.822;4.376;2022-10-31T15:25:24;20.83;;;7.88;;
23826;SDS011;12094;50.822;4.376;2022-10-31T15:27:54;18.40;;;7.68;;
23826;SDS011;12094;50.822;4.376;2022-10-31T15:30:23;18.88;;;8.23;;
23826;SDS011;12094;50.822;4.376;2022-10-31T15:32:54;18.17;;;8.15;;
23826;SDS011;12094;50.822;4.376;2022-10-31T15:35:26;22.92;;;7.95;;
23826;SDS011;12094;50.822;4.376;2022-10-31T15:40:26;26.40;;;8.95;;
23826;SDS011;12094;50.822;4.376;2022-10-31T15:42:56;21.92;;;8.85;;
23826;SDS011;12094;50.822;4.376;2022-10-31T15:45:28;22.90;;;9.02;;
23826;SDS011;12094;50.822;4.376;2022-10-31T15:47:58;25.45;;;9.90;;
23826;SDS011;12094;50.822;4.376;2022-10-31T15:50:33;26.95;;;9.50;;
23826;SDS011;12094;50.822;4.376;2022-10-31T15:55:33;32.35;;;11.32;;
23826;SDS011;12094;50.822;4.376;2022-10-31T15:58:12;18.70;;;9.25;;
23826;SDS011;12094;50.822;4.376;2022-10-31T16:00:42;24.30;;;9.45;;
23826;SDS011;12094;50.822;4.376;2022-10-31T16:13:37;24.60;;;11.52;;
23826;SDS011;12094;50.822;4.376;2022-10-31T16:16:28;28.67;;;10.93;;
23826;SDS011;12094;50.822;4.376;2022-10-31T16:19:03;27.58;;;11.05;;
23826;SDS011;12094;50.822;4.376;2022-10-31T16:21:33;22.65;;;12.30;;
23826;SDS011;12094;50.822;4.376;2022-10-31T16:24:04;29.67;;;12.40;;
23826;SDS011;12094;50.822;4.376;2022-10-31T16:26:42;24.40;;;11.52;;
23826;SDS011;12094;50.822;4.376;2022-10-31T16:29:26;24.45;;;11.65;;
23826;SDS011;12094;50.822;4.376;2022-10-31T16:31:59;30.98;;;12.73;;
23826;SDS011;12094;50.822;4.376;2022-10-31T16:34:27;22.88;;;12.00;;
23826;SDS011;12094;50.822;4.376;2022-10-31T16:37:01;27.02;;;11.77;;
23826;SDS011;12094;50.822;4.376;2022-10-31T16:39:33;21.38;;;11.35;;
23826;SDS011;12094;50.822;4.376;2022-10-31T16:42:00;26.70;;;12.07;;
23826;SDS011;12094;50.822;4.376;2022-10-31T16:44:27;20.40;;;11.40;;
23826;SDS011;12094;50.822;4.376;2022-10-31T16:47:15;25.52;;;11.25;;
23826;SDS011;12094;50.822;4.376;2022-10-31T16:49:46;25.10;;;11.80;;
23826;SDS011;12094;50.822;4.376;2022-10-31T16:52:17;23.10;;;10.13;;
23826;SDS011;12094;50.822;4.376;2022-10-31T16:54:50;31.33;;;11.18;;
23826;SDS011;12094;50.822;4.376;2022-10-31T16:57:19;17.75;;;10.30;;
23826;SDS011;12094;50.822;4.376;2022-10-31T16:59:52;24.50;;;10.27;;
23826;SDS011;12094;50.822;4.376;2022-10-31T17:02:21;20.77;;;9.27;;
23826;SDS011;12094;50.822;4.376;2022-10-31T17:04:48;21.00;;;8.65;;
23826;SDS011;12094;50.822;4.376;2022-10-31T17:07:22;20.15;;;8.15;;
23826;SDS011;12094;50.822;4.376;2022-10-31T17:09:50;14.57;;;8.02;;
23826;SDS011;12094;50.822;4.376;2022-10-31T17:12:19;16.58;;;7.05;;
23826;SDS011;12094;50.822;4.376;2022-10-31T17:14:49;17.92;;;6.75;;
23826;SDS011;12094;50.822;4.376;2022-10-31T17:17:17;18.25;;;7.30;;
23826;SDS011;12094;50.822;4.376;2022-10-31T17:19:45;19.63;;;8.30;;
23826;SDS011;12094;50.822;4.376;2022-10-31T17:22:13;20.63;;;7.18;;
23826;SDS011;12094;50.822;4.376;2022-10-31T17:24:41;12.18;;;6.72;;
23826;SDS011;12094;50.822;4.376;2022-10-31T17:27:09;21.73;;;6.47;;
23826;SDS011;12094;50.822;4.376;2022-10-31T17:29:37;13.45;;;6.20;;
23826;SDS011;12094;50.822;4.376;2022-10-31T17:32:04;14.80;;;6.35;;
23826;SDS011;12094;50.822;4.376;2022-10-31T17:34:31;17.42;;;6.60;;
23826;SDS011;12094;50.822;4.376;2022-10-31T17:36:59;15.27;;;6.32;;
23826;SDS011;12094;50.822;4.376;2022-10-31T17:39:26;16.73;;;6.47;;
23826;SDS011;12094;50.822;4.376;2022-10-31T17:41:53;14.75;;;6.78;;
23826;SDS011;12094;50.822;4.376;2022-10-31T17:44:21;11.48;;;7.18;;
23826;SDS011;12094;50.822;4.376;2022-10-31T17:46:49;19.65;;;6.95;;
23826;SDS011;12094;50.822;4.376;2022-10-31T17:49:16;13.60;;;6.53;;
23826;SDS011;12094;50.822;4.376;2022-10-31T17:51:43;15.45;;;6.78;;
23826;SDS011;12094;50.822;4.376;2022-10-31T17:54:12;16.48;;;6.32;;
23826;SDS011;12094;50.822;4.376;2022-10-31T17:56:41;14.10;;;6.43;;
23826;SDS011;12094;50.822;4.376;2022-10-31T17:59:09;20.25;;;7.25;;
23826;SDS011;12094;50.822;4.376;2022-10-31T18:01:38;18.63;;;6.50;;
23826;SDS011;12094;50.822;4.376;2022-10-31T18:04:06;16.23;;;6.50;;
23826;SDS011;12094;50.822;4.376;2022-10-31T18:06:33;15.32;;;6.97;;
23826;SDS011;12094;50.822;4.376;2022-10-31T18:09:02;16.20;;;6.25;;
23826;SDS011;12094;50.822;4.376;2022-10-31T18:11:30;15.45;;;6.72;;
23826;SDS011;12094;50.822;4.376;2022-10-31T18:13:58;17.55;;;6.70;;